Bath, United Kingdom
Current Conditions -  °F | °C
As of 9:20 PM on Tuesday 25 Nov 2014 (Local Time) from EGGD Reporting Station
Light Rain Light Rain  
Wind Chill: 33°   Ceiling: 200
Heat Index: 39°   Visibility: 0.18mi
Dew Point: 39°   Wind: 9mph
Humidity: 100%   Direction: 40°NE
Pressure: 30.03"   Gusts: NA
Location:  51.38°N, 2.36°W
Report Text: EGGD 252120Z 04008KT 0300 R27/1000 -RADZ FG FEW001 OVC002 04/04 Q1017
Loading
Personal Weather Stations






























Interactive Weather Map New forecast layout! Learn more

10-Day Weather Forecast

Advertisements
Track Severe Weather on mobile